createdAt,value
2022-12-03T00:00:36.709Z,95840.44
2022-12-03T00:03:03.411Z,95838.72
2022-12-03T00:05:30.045Z,95839.53
2022-12-03T00:07:56.806Z,95837.69
2022-12-03T00:10:23.450Z,95836.53
2022-12-03T00:12:50.027Z,95839.72
2022-12-03T00:15:16.650Z,95834.84
2022-12-03T00:17:43.190Z,95840.59
2022-12-03T00:20:17.169Z,95844.34
2022-12-03T00:22:43.717Z,95829.81
2022-12-03T00:25:10.299Z,95837.69
2022-12-03T00:27:36.893Z,95832.88
2022-12-03T00:30:04.906Z,95828.53
2022-12-03T00:32:31.517Z,95833.34
2022-12-03T00:34:58.031Z,95837.69
2022-12-03T00:37:24.634Z,95835.97
2022-12-03T00:39:51.188Z,95820.38
2022-12-03T00:42:17.717Z,95832.19
2022-12-03T00:44:44.610Z,95818.16
2022-12-03T00:47:11.225Z,95831.06
2022-12-03T00:49:37.815Z,95818.91
2022-12-03T00:52:04.371Z,95813.28
2022-12-03T00:54:32.309Z,95818.09
2022-12-03T00:56:59.413Z,95818.72
2022-12-03T00:59:25.985Z,95820.31
2022-12-03T01:01:52.713Z,95814.09
2022-12-03T01:04:19.522Z,95814.66
2022-12-03T01:06:46.222Z,95822.19
2022-12-03T01:09:12.734Z,95816.78
2022-12-03T01:11:39.409Z,95825.25
2022-12-03T01:14:07.446Z,95829.25
2022-12-03T01:16:34.622Z,95823.63
2022-12-03T01:19:01.487Z,95825.44
2022-12-03T01:21:28.090Z,95820.06
2022-12-03T01:23:54.644Z,95818.22
2022-12-03T01:26:21.293Z,95820.63
2022-12-03T01:28:47.881Z,95824.44
2022-12-03T01:31:33.251Z,95833.53
2022-12-03T01:33:59.857Z,95827.31
2022-12-03T01:36:26.733Z,95838.84
2022-12-03T01:38:53.305Z,95840.47
2022-12-03T01:41:21.116Z,95841.28
2022-12-03T01:43:48.836Z,95841.47
2022-12-03T01:46:20.090Z,95838.97
2022-12-03T01:48:48.407Z,95837.22
2022-12-03T01:51:15.690Z,95835.41
2022-12-03T01:53:44.197Z,95832.78
2022-12-03T01:56:19.813Z,95827.19
2022-12-03T01:58:47.152Z,95828.13
2022-12-03T02:01:17.142Z,95830.00
2022-12-03T02:03:45.203Z,95834.03
2022-12-03T02:06:25.042Z,95838.28
2022-12-03T02:08:58.705Z,95841.34
2022-12-03T02:11:31.295Z,95841.28
2022-12-03T02:14:03.237Z,95841.28
2022-12-03T02:16:30.987Z,95843.72
2022-12-03T02:18:58.510Z,95836.97
2022-12-03T02:21:43.576Z,95843.34
2022-12-03T02:24:24.106Z,95839.28
2022-12-03T02:26:50.953Z,95844.41
2022-12-03T02:29:17.545Z,95842.41
2022-12-03T02:31:44.230Z,95845.53
2022-12-03T02:34:11.729Z,95844.41
2022-12-03T02:36:39.229Z,95846.28
2022-12-03T02:39:06.162Z,95844.91
2022-12-03T02:41:51.544Z,95847.34
2022-12-03T02:44:18.243Z,95848.16
2022-12-03T02:46:44.918Z,95847.16
2022-12-03T02:49:11.659Z,95844.34
2022-12-03T02:51:38.276Z,95847.59
2022-12-03T02:54:05.137Z,95854.03
2022-12-03T02:56:33.110Z,95839.19
2022-12-03T02:59:03.161Z,95842.47
2022-12-03T03:01:30.044Z,95832.81
2022-12-03T03:03:57.460Z,95844.47
2022-12-03T03:06:24.486Z,95838.22
2022-12-03T03:08:51.332Z,95836.81
2022-12-03T03:11:18.047Z,95831.69
2022-12-03T03:13:44.619Z,95834.69
2022-12-03T03:16:11.320Z,95828.50
2022-12-03T03:18:38.144Z,95839.84
2022-12-03T03:21:05.247Z,95844.91
2022-12-03T03:23:32.294Z,95833.38
2022-12-03T03:26:11.433Z,95839.09
2022-12-03T03:28:44.797Z,95837.78
2022-12-03T03:31:14.000Z,95834.28
2022-12-03T03:33:43.698Z,95830.13
2022-12-03T03:36:10.518Z,95833.88
2022-12-03T03:38:38.131Z,95839.59
2022-12-03T03:41:07.131Z,95836.25
2022-12-03T03:43:35.674Z,95832.81
2022-12-03T03:46:04.830Z,95830.88
2022-12-03T03:48:34.167Z,95828.75
2022-12-03T03:51:03.635Z,95832.56
2022-12-03T03:53:31.007Z,95825.25
2022-12-03T03:55:57.737Z,95828.75
2022-12-03T03:58:24.316Z,95825.50
2022-12-03T04:00:51.824Z,95830.00
2022-12-03T04:03:18.547Z,95822.22
2022-12-03T04:05:45.134Z,95819.78
2022-12-03T04:08:11.905Z,95826.63
2022-12-03T04:10:56.790Z,95817.41
2022-12-03T04:13:23.320Z,95822.22
2022-12-03T04:15:50.019Z,95815.72
2022-12-03T04:18:35.230Z,95817.53
2022-12-03T04:21:20.253Z,95815.22
2022-12-03T04:23:46.807Z,95807.06
2022-12-03T04:26:31.934Z,95814.81
2022-12-03T04:28:58.654Z,95811.72
2022-12-03T04:31:43.736Z,95820.78
2022-12-03T04:34:29.584Z,95812.88
2022-12-03T04:36:56.131Z,95800.81
2022-12-03T04:39:22.955Z,95821.28
2022-12-03T04:41:49.533Z,95809.69
2022-12-03T04:44:33.869Z,95802.19
2022-12-03T04:47:01.322Z,95812.06
2022-12-03T04:49:27.847Z,95801.38
2022-12-03T04:51:54.464Z,95805.13
2022-12-03T04:54:21.062Z,95801.53
2022-12-03T04:56:47.697Z,95808.06
2022-12-03T04:59:16.527Z,95808.06
2022-12-03T05:01:44.070Z,95805.94
2022-12-03T05:04:11.259Z,95802.19
2022-12-03T05:06:38.043Z,95799.41
2022-12-03T05:09:05.397Z,95799.91
2022-12-03T05:11:31.973Z,95799.75
2022-12-03T05:13:58.591Z,95800.81
2022-12-03T05:16:25.498Z,95791.84
2022-12-03T05:18:52.104Z,95800.81
2022-12-03T05:21:18.669Z,95792.41
2022-12-03T05:23:45.229Z,95799.16
2022-12-03T05:26:12.380Z,95797.28
2022-12-03T05:28:38.928Z,95794.91
2022-12-03T05:31:06.154Z,95794.84
2022-12-03T05:33:33.107Z,95786.59
2022-12-03T05:35:59.877Z,95787.91
2022-12-03T05:38:26.444Z,95776.31
2022-12-03T05:40:52.998Z,95782.22
2022-12-03T05:43:19.585Z,95788.34
2022-12-03T05:46:01.318Z,95786.72
2022-12-03T05:48:27.877Z,95792.41
2022-12-03T05:50:54.446Z,95787.28
2022-12-03T05:53:21.054Z,95788.09
2022-12-03T05:55:47.709Z,95793.47
2022-12-03T05:58:14.272Z,95798.28
2022-12-03T06:00:43.073Z,95803.50
2022-12-03T06:03:10.541Z,95797.78
2022-12-03T06:05:37.338Z,95803.00
2022-12-03T06:08:04.434Z,95804.13
2022-12-03T06:10:31.088Z,95815.06
2022-12-03T06:12:57.850Z,95794.28
2022-12-03T06:15:24.993Z,95796.16
2022-12-03T06:17:51.585Z,95803.81
2022-12-03T06:20:20.017Z,95795.16
2022-12-03T06:22:47.664Z,95792.53
2022-12-03T06:25:15.342Z,95787.91
2022-12-03T06:27:42.830Z,95793.53
2022-12-03T06:30:12.764Z,95795.66
2022-12-03T06:32:39.397Z,95794.03
2022-12-03T06:35:06.280Z,95785.97
2022-12-03T06:37:32.825Z,95791.41
2022-12-03T06:39:59.414Z,95792.41
2022-12-03T06:42:25.946Z,95802.69
2022-12-03T06:44:53.163Z,95800.56
2022-12-03T06:47:19.935Z,95809.50
2022-12-03T06:49:46.515Z,95813.59
2022-12-03T06:52:13.089Z,95806.94
2022-12-03T06:54:39.629Z,95810.69
2022-12-03T06:57:06.217Z,95809.06
2022-12-03T06:59:34.230Z,95820.97
2022-12-03T07:02:01.163Z,95808.88
2022-12-03T07:04:27.878Z,95812.94
2022-12-03T07:06:54.451Z,95812.44
2022-12-03T07:09:20.971Z,95811.97
2022-12-03T07:11:47.514Z,95816.97
2022-12-03T07:14:14.204Z,95803.19
2022-12-03T07:16:43.295Z,95806.75
2022-12-03T07:19:10.671Z,95808.56
2022-12-03T07:21:37.659Z,95808.63
2022-12-03T07:24:04.404Z,95805.25
2022-12-03T07:26:31.157Z,95799.06
2022-12-03T07:28:57.892Z,95805.50
2022-12-03T07:31:24.707Z,95799.41
2022-12-03T07:33:51.412Z,95804.06
2022-12-03T07:36:18.152Z,95795.91
2022-12-03T07:38:45.028Z,95803.44
2022-12-03T07:41:11.637Z,95798.28
2022-12-03T07:43:38.205Z,95796.16
2022-12-03T07:46:04.930Z,95793.22
2022-12-03T07:48:31.454Z,95800.25
2022-12-03T07:50:58.201Z,95794.59
2022-12-03T07:53:24.958Z,95799.00
2022-12-03T07:55:51.524Z,95795.25
2022-12-03T07:58:18.069Z,95796.88
2022-12-03T08:00:44.654Z,95801.19
2022-12-03T08:03:11.197Z,95800.38
2022-12-03T08:05:37.730Z,95800.25
2022-12-03T08:08:04.474Z,95798.56
2022-12-03T08:10:31.175Z,95801.81
2022-12-03T08:12:59.326Z,95809.00
2022-12-03T08:15:31.138Z,95810.88
2022-12-03T08:18:07.976Z,95814.16
2022-12-03T08:20:39.773Z,95805.19
2022-12-03T08:23:17.992Z,95807.94
2022-12-03T08:25:45.418Z,95812.34
2022-12-03T08:28:16.117Z,95803.38
2022-12-03T08:30:44.585Z,95809.97
2022-12-03T08:33:21.850Z,95797.06
2022-12-03T08:35:50.951Z,95802.50
2022-12-03T08:38:21.049Z,95808.63
2022-12-03T08:40:51.042Z,95808.06
2022-12-03T08:43:26.050Z,95814.81
2022-12-03T08:45:55.195Z,95807.53
2022-12-03T08:48:26.866Z,95813.13
2022-12-03T08:51:26.666Z,95804.66
2022-12-03T08:54:04.164Z,95796.38
2022-12-03T08:56:36.049Z,95813.69
2022-12-03T08:59:27.070Z,95802.91
2022-12-03T09:01:55.151Z,95799.78
2022-12-03T09:04:26.819Z,95804.84
2022-12-03T09:06:54.486Z,95795.72
2022-12-03T09:09:21.456Z,95798.16
2022-12-03T09:11:48.007Z,95800.09
2022-12-03T09:14:18.548Z,95800.28
2022-12-03T09:16:45.781Z,95793.06
2022-12-03T09:19:12.371Z,95798.59
2022-12-03T09:21:38.899Z,95799.28
2022-12-03T09:24:05.738Z,95801.66
2022-12-03T09:26:32.332Z,95794.13
2022-12-03T09:28:58.862Z,95801.41
2022-12-03T09:31:25.507Z,95796.22
2022-12-03T09:33:52.218Z,95803.22
2022-12-03T09:36:18.783Z,95796.69
2022-12-03T09:38:47.855Z,95808.13
2022-12-03T09:41:14.832Z,95802.72
2022-12-03T09:44:03.177Z,95797.13
2022-12-03T09:46:30.197Z,95796.13
2022-12-03T09:48:57.128Z,95787.63
2022-12-03T09:51:30.676Z,95799.91
2022-12-03T09:53:59.764Z,95786.56
2022-12-03T09:56:26.563Z,95784.28
2022-12-03T09:58:53.176Z,95778.91
2022-12-03T10:01:19.805Z,95778.06
2022-12-03T10:03:50.438Z,95777.81
2022-12-03T10:06:23.007Z,95772.78
2022-12-03T10:08:53.502Z,95779.91
2022-12-03T10:11:25.138Z,95773.84
2022-12-03T10:13:54.855Z,95769.28
2022-12-03T10:16:21.582Z,95767.31
2022-12-03T10:18:54.357Z,95772.53
2022-12-03T10:21:26.891Z,95777.47
2022-12-03T10:24:20.326Z,95767.19
2022-12-03T10:26:48.998Z,95776.28
2022-12-03T10:29:21.856Z,95767.00
2022-12-03T10:31:59.216Z,95757.78
2022-12-03T10:34:34.284Z,95750.03
2022-12-03T10:37:21.455Z,95747.72
2022-12-03T10:40:01.385Z,95741.53
2022-12-03T10:42:34.157Z,95742.66
2022-12-03T10:45:18.165Z,95734.88
2022-12-03T10:48:03.132Z,95723.59
2022-12-03T10:50:29.980Z,95725.41
2022-12-03T10:52:56.558Z,95726.09
2022-12-03T10:55:23.759Z,95719.97
2022-12-03T10:57:50.392Z,95726.72
2022-12-03T11:00:19.329Z,95719.81
2022-12-03T11:02:53.070Z,95723.91
2022-12-03T11:05:29.203Z,95722.88
2022-12-03T11:07:57.099Z,95726.66
2022-12-03T11:10:24.287Z,95722.78
2022-12-03T11:13:39.169Z,95713.44
2022-12-03T11:16:08.172Z,95720.94
2022-12-03T11:18:37.457Z,95721.75
2022-12-03T11:21:08.536Z,95717.13
2022-12-03T11:23:47.052Z,95714.38
2022-12-03T11:26:36.445Z,95721.97
2022-12-03T11:29:04.543Z,95718.41
2022-12-03T11:31:36.901Z,95717.63
2022-12-03T11:34:18.741Z,95711.00
2022-12-03T11:37:21.731Z,95714.69
2022-12-03T11:39:51.076Z,95721.91
2022-12-03T11:42:26.899Z,95708.19
2022-12-03T11:45:02.687Z,95707.78
2022-12-03T11:48:30.139Z,95713.19
2022-12-03T11:50:56.706Z,95711.38
2022-12-03T11:53:31.148Z,95710.75
2022-12-03T11:56:08.901Z,95707.16
2022-12-03T11:58:38.660Z,95706.63
2022-12-03T12:01:07.475Z,95709.41
2022-12-03T12:03:51.961Z,95695.13
2022-12-03T12:06:20.794Z,95695.28
2022-12-03T12:08:56.261Z,95696.91
2022-12-03T12:11:43.830Z,95695.94
2022-12-03T12:14:12.477Z,95691.28
2022-12-03T12:16:51.358Z,95689.44
2022-12-03T12:19:54.062Z,95681.50
2022-12-03T12:22:31.028Z,95678.31
2022-12-03T12:25:06.874Z,95675.56
2022-12-03T12:27:34.994Z,95671.56
2022-12-03T12:30:17.918Z,95669.38
2022-12-03T12:32:47.614Z,95673.06
2022-12-03T12:35:23.024Z,95660.22
2022-12-03T12:37:58.466Z,95652.94
2022-12-03T12:40:29.289Z,95651.81
2022-12-03T12:43:29.583Z,95663.56
2022-12-03T12:46:13.493Z,95646.00
2022-12-03T12:48:46.905Z,95645.53
2022-12-03T12:51:18.816Z,95646.53
2022-12-03T12:53:46.456Z,95646.75
2022-12-03T12:56:31.921Z,95642.78
2022-12-03T12:59:16.419Z,95641.38
2022-12-03T13:01:44.832Z,95651.56
2022-12-03T13:04:14.657Z,95645.13
2022-12-03T13:06:42.130Z,95644.09
2022-12-03T13:09:17.801Z,95641.38
2022-12-03T13:11:47.251Z,95645.72
2022-12-03T13:14:35.115Z,95638.56
2022-12-03T13:17:10.905Z,95635.47
2022-12-03T13:19:47.604Z,95628.66
2022-12-03T13:22:21.761Z,95625.22
2022-12-03T13:24:51.076Z,95619.81
2022-12-03T13:27:17.684Z,95621.59
2022-12-03T13:29:46.341Z,95616.56
2022-12-03T13:32:21.876Z,95617.28
2022-12-03T13:34:50.543Z,95615.19
2022-12-03T13:37:23.194Z,95606.78
2022-12-03T13:39:53.415Z,95602.81
2022-12-03T13:42:38.535Z,95612.75
2022-12-03T13:45:45.535Z,95597.00
2022-12-03T13:48:18.252Z,95596.75
2022-12-03T13:50:46.156Z,95605.13
2022-12-03T13:53:27.094Z,95592.75
2022-12-03T13:56:26.014Z,95590.06
2022-12-03T13:58:52.530Z,95592.78
2022-12-03T14:01:19.114Z,95591.97
2022-12-03T14:03:45.669Z,95596.00
2022-12-03T14:06:12.202Z,95589.25
2022-12-03T14:08:38.818Z,95594.53
2022-12-03T14:11:05.536Z,95593.91
2022-12-03T14:13:32.076Z,95590.66
2022-12-03T14:15:58.720Z,95590.66
2022-12-03T14:18:25.490Z,95594.69
2022-12-03T14:20:52.148Z,95585.53
2022-12-03T14:23:18.728Z,95595.22
2022-12-03T14:25:45.259Z,95588.44
2022-12-03T14:28:12.013Z,95598.69
2022-12-03T14:30:38.606Z,95593.00
2022-12-03T14:33:05.181Z,95594.06
2022-12-03T14:35:31.706Z,95595.13
2022-12-03T14:37:58.265Z,95591.88
2022-12-03T14:40:24.805Z,95594.31
2022-12-03T14:42:51.452Z,95607.03
2022-12-03T14:45:17.967Z,95607.31
2022-12-03T14:47:44.520Z,95600.56
2022-12-03T14:50:14.627Z,95601.44
2022-12-03T14:52:41.521Z,95601.59
2022-12-03T14:55:08.552Z,95594.28
2022-12-03T14:57:35.127Z,95594.28
2022-12-03T15:00:01.704Z,95598.59
2022-12-03T15:02:28.940Z,95600.81
2022-12-03T15:04:55.573Z,95605.94
2022-12-03T15:07:22.231Z,95600.81
2022-12-03T15:09:49.240Z,95592.69
2022-12-03T15:12:15.783Z,95599.19
2022-12-03T15:14:42.751Z,95591.22
2022-12-03T15:17:09.418Z,95599.28
2022-12-03T15:19:36.159Z,95593.91
2022-12-03T15:22:02.757Z,95587.72
2022-12-03T15:24:29.376Z,95595.50
2022-12-03T15:26:56.124Z,95596.56
2022-12-03T15:29:23.610Z,95589.28
2022-12-03T15:31:53.082Z,95589.53
2022-12-03T15:34:22.761Z,95595.22
2022-12-03T15:36:49.765Z,95579.59
2022-12-03T15:39:16.301Z,95591.69
2022-12-03T15:41:42.922Z,95585.19
2022-12-03T15:44:09.496Z,95586.56
2022-12-03T15:46:36.189Z,95582.22
2022-12-03T15:49:02.804Z,95584.81
2022-12-03T15:51:29.305Z,95594.47
2022-12-03T15:53:55.871Z,95588.53
2022-12-03T15:56:22.489Z,95591.69
2022-12-03T15:58:49.073Z,95591.16
2022-12-03T16:01:18.216Z,95593.44
2022-12-03T16:03:45.147Z,95600.72
2022-12-03T16:06:12.635Z,95592.28
2022-12-03T16:08:39.223Z,95586.66
2022-12-03T16:11:06.032Z,95579.91
2022-12-03T16:13:32.557Z,95584.97
2022-12-03T16:15:59.211Z,95592.84
2022-12-03T16:18:25.883Z,95586.19
2022-12-03T16:20:52.470Z,95591.28
2022-12-03T16:23:18.990Z,95588.06
2022-12-03T16:25:45.533Z,95595.06
2022-12-03T16:28:12.105Z,95597.47
2022-12-03T16:30:38.801Z,95591.81
2022-12-03T16:33:05.419Z,95589.63
2022-12-03T16:35:31.992Z,95593.50
2022-12-03T16:37:58.498Z,95593.72
2022-12-03T16:40:25.390Z,95599.41
2022-12-03T16:42:51.932Z,95597.22
2022-12-03T16:45:22.557Z,95599.13
2022-12-03T16:47:49.925Z,95592.38
2022-12-03T16:50:24.375Z,95589.19
2022-12-03T16:52:54.316Z,95582.94
2022-12-03T16:55:20.874Z,95581.09
2022-12-03T16:57:47.450Z,95576.78
2022-12-03T17:00:14.592Z,95585.97
2022-12-03T17:02:41.233Z,95583.22
2022-12-03T17:05:08.182Z,95589.13
2022-12-03T17:07:34.747Z,95575.19
2022-12-03T17:10:01.454Z,95579.53
2022-12-03T17:12:42.101Z,95577.63
2022-12-03T17:15:14.729Z,95574.94
2022-12-03T17:17:41.276Z,95577.44
2022-12-03T17:20:08.697Z,95568.78
2022-12-03T17:22:35.284Z,95571.47
2022-12-03T17:25:02.027Z,95574.50
2022-12-03T17:27:29.580Z,95573.06
2022-12-03T17:29:56.306Z,95560.78
2022-12-03T17:32:22.896Z,95567.78
2022-12-03T17:34:49.671Z,95555.88
2022-12-03T17:37:16.266Z,95559.63
2022-12-03T17:39:42.837Z,95549.78
2022-12-03T17:42:09.394Z,95552.44
2022-12-03T17:44:35.969Z,95555.44
2022-12-03T17:47:02.722Z,95542.47
2022-12-03T17:49:31.683Z,95547.31
2022-12-03T17:51:58.526Z,95540.84
2022-12-03T17:54:37.963Z,95546.03
2022-12-03T17:57:11.707Z,95545.44
2022-12-03T17:59:38.246Z,95533.06
2022-12-03T18:02:04.920Z,95538.72
2022-12-03T18:04:31.666Z,95530.59
2022-12-03T18:07:02.153Z,95534.19
2022-12-03T18:09:29.105Z,95533.91
2022-12-03T18:11:55.739Z,95529.00
2022-12-03T18:14:22.293Z,95532.81
2022-12-03T18:16:48.910Z,95528.75
2022-12-03T18:19:15.569Z,95531.72
2022-12-03T18:21:42.503Z,95540.38
2022-12-03T18:24:09.274Z,95537.91
2022-12-03T18:26:36.046Z,95540.63
2022-12-03T18:29:02.648Z,95536.63
2022-12-03T18:31:29.242Z,95533.63
2022-12-03T18:33:55.883Z,95522.88
2022-12-03T18:36:25.442Z,95527.19
2022-12-03T18:38:55.241Z,95526.38
2022-12-03T18:41:24.154Z,95521.81
2022-12-03T18:43:50.931Z,95528.81
2022-12-03T18:46:45.234Z,95526.09
2022-12-03T18:49:05.628Z,95525.31
2022-12-03T18:51:32.193Z,95528.28
2022-12-03T18:53:58.699Z,95513.69
2022-12-03T18:56:25.751Z,95518.03
2022-12-03T18:58:52.277Z,95522.66
2022-12-03T19:01:23.039Z,95515.63
2022-12-03T19:03:49.942Z,95513.72
2022-12-03T19:06:19.245Z,95506.47
2022-12-03T19:08:48.635Z,95502.69
2022-12-03T19:11:15.857Z,95511.84
2022-12-03T19:13:42.693Z,95512.94
2022-12-03T19:16:12.221Z,95512.44
2022-12-03T19:18:39.656Z,95511.63
2022-12-03T19:21:10.978Z,95505.66
2022-12-03T19:23:38.012Z,95512.44
2022-12-03T19:26:07.189Z,95501.38
2022-12-03T19:28:34.601Z,95510.25
2022-12-03T19:31:18.287Z,95503.50
2022-12-03T19:33:45.432Z,95505.41
2022-12-03T19:36:25.136Z,95503.75
2022-12-03T19:38:56.840Z,95501.88
2022-12-03T19:41:26.759Z,95501.09
2022-12-03T19:43:55.682Z,95508.09
2022-12-03T19:46:24.227Z,95501.63
2022-12-03T19:48:51.215Z,95499.44
2022-12-03T19:51:33.518Z,95492.69
2022-12-03T19:54:01.181Z,95493.81
2022-12-03T19:56:30.233Z,95490.81
2022-12-03T19:58:57.408Z,95502.44
2022-12-03T20:01:27.231Z,95504.91
2022-12-03T20:03:56.532Z,95492.50
2022-12-03T20:06:25.652Z,95491.97
2022-12-03T20:08:57.837Z,95485.19
2022-12-03T20:11:27.118Z,95487.91
2022-12-03T20:13:56.610Z,95492.44
2022-12-03T20:16:24.325Z,95484.91
2022-12-03T20:18:51.803Z,95487.34
2022-12-03T20:21:19.379Z,95490.59
2022-12-03T20:23:46.762Z,95499.47
2022-12-03T20:26:16.808Z,95481.13
2022-12-03T20:28:43.779Z,95493.03
2022-12-03T20:31:15.919Z,95489.25
2022-12-03T20:33:45.609Z,95485.22
2022-12-03T20:36:14.310Z,95480.09
2022-12-03T20:38:41.827Z,95490.06
2022-12-03T20:41:18.699Z,95494.94
2022-12-03T20:43:45.842Z,95489.53
2022-12-03T20:46:14.836Z,95486.03
2022-12-03T20:48:42.914Z,95490.34
2022-12-03T20:51:14.501Z,95484.13
2022-12-03T20:53:41.977Z,95497.06
2022-12-03T20:56:09.723Z,95493.84
2022-12-03T20:58:36.605Z,95493.59
2022-12-03T21:01:15.928Z,95493.03
2022-12-03T21:03:43.595Z,95487.63
2022-12-03T21:06:10.334Z,95485.19
2022-12-03T21:08:41.455Z,95484.69
2022-12-03T21:11:20.672Z,95483.06
2022-12-03T21:13:47.997Z,95472.28
2022-12-03T21:16:17.922Z,95476.59
2022-12-03T21:18:45.283Z,95481.97
2022-12-03T21:21:14.152Z,95489.84
2022-12-03T21:23:41.679Z,95486.53
2022-12-03T21:26:16.923Z,95479.50
2022-12-03T21:28:45.559Z,95468.44
2022-12-03T21:31:15.214Z,95465.50
2022-12-03T21:33:41.885Z,95473.53
2022-12-03T21:36:10.243Z,95477.34
2022-12-03T21:38:37.858Z,95476.28
2022-12-03T21:41:04.941Z,95465.78
2022-12-03T21:43:32.539Z,95466.06
2022-12-03T21:45:59.750Z,95467.66
2022-12-03T21:48:26.418Z,95464.94
2022-12-03T21:51:03.635Z,95473.03
2022-12-03T21:53:32.211Z,95464.38
2022-12-03T21:55:59.280Z,95458.44
2022-12-03T21:58:25.851Z,95461.72
2022-12-03T22:00:52.690Z,95458.47
2022-12-03T22:03:19.245Z,95452.28
2022-12-03T22:05:45.854Z,95450.44
2022-12-03T22:08:13.878Z,95453.09
2022-12-03T22:10:40.800Z,95457.38
2022-12-03T22:13:07.476Z,95458.44
2022-12-03T22:15:34.274Z,95453.63
2022-12-03T22:18:00.851Z,95453.31
2022-12-03T22:20:27.434Z,95448.78
2022-12-03T22:22:53.998Z,95456.34
2022-12-03T22:25:20.505Z,95455.28
2022-12-03T22:27:47.093Z,95452.00
2022-12-03T22:30:13.757Z,95450.94
2022-12-03T22:32:40.287Z,95450.41
2022-12-03T22:35:07.159Z,95454.50
2022-12-03T22:37:33.749Z,95457.41
2022-12-03T22:40:00.361Z,95439.59
2022-12-03T22:42:26.992Z,95432.84
2022-12-03T22:44:53.514Z,95431.53
2022-12-03T22:47:20.020Z,95431.81
2022-12-03T22:49:46.628Z,95421.00
2022-12-03T22:52:13.153Z,95427.47
2022-12-03T22:54:39.783Z,95428.03
2022-12-03T22:57:06.287Z,95424.81
2022-12-03T22:59:32.801Z,95423.19
2022-12-03T23:01:59.330Z,95421.28
2022-12-03T23:04:25.991Z,95422.31
2022-12-03T23:06:52.532Z,95416.19
2022-12-03T23:09:19.100Z,95430.47
2022-12-03T23:11:45.931Z,95418.88
2022-12-03T23:14:13.066Z,95417.53
2022-12-03T23:16:40.523Z,95422.34
2022-12-03T23:19:07.686Z,95421.53
2022-12-03T23:21:35.489Z,95424.78
2022-12-03T23:24:03.925Z,95423.13
2022-12-03T23:26:33.176Z,95414.78
2022-12-03T23:28:59.787Z,95412.66
2022-12-03T23:31:29.825Z,95416.41
2022-12-03T23:33:58.251Z,95416.19
2022-12-03T23:36:26.928Z,95417.78
2022-12-03T23:38:54.085Z,95411.59
2022-12-03T23:41:23.122Z,95408.84
2022-12-03T23:43:49.829Z,95412.66
2022-12-03T23:46:19.714Z,95409.97
2022-12-03T23:48:46.666Z,95415.34
2022-12-03T23:51:16.347Z,95417.00
2022-12-03T23:53:42.922Z,95402.97
2022-12-03T23:56:20.953Z,95423.44
2022-12-03T23:58:47.944Z,95400.81
